Time;durP1;ratioP1;P1;durP2;ratioP2;P2;SDS_P1;SDS_P2;PMS_P1;PMS_P2;Temp;Humidity;BMP_temperature;BMP_pressure;BME280_temperature;BME280_humidity;BME280_pressure;Samples;Min_cycle;Max_cycle;Signal;HPM_P1;HPM_P2
2022/04/25 00:02:16;;;;;;;9.45;3.65;;;6.30;99.90;;;;;;5055824;28;20036;-58
2022/04/25 00:04:41;;;;;;;9.43;3.20;;;6.30;99.90;;;;;;5055939;28;20035;-58
2022/04/25 00:07:07;;;;;;;5.00;2.22;;;6.30;99.90;;;;;;5056163;28;20056;-58
2022/04/25 00:09:33;;;;;;;7.45;2.63;;;6.20;99.90;;;;;;5055731;28;20158;-58
2022/04/25 00:11:58;;;;;;;8.30;3.05;;;6.20;99.90;;;;;;5055816;28;20059;-58
2022/04/25 00:14:24;;;;;;;7.65;3.45;;;6.20;99.90;;;;;;5055738;28;20037;-59
2022/04/25 00:16:55;;;;;;;6.80;2.72;;;6.20;99.90;;;;;;5055637;28;20068;-58
2022/04/25 00:19:24;;;;;;;3.97;2.33;;;6.20;99.90;;;;;;5037659;28;20400;-58
2022/04/25 00:21:51;;;;;;;6.03;2.65;;;6.20;99.90;;;;;;5055771;28;20021;-61
2022/04/25 00:24:17;;;;;;;4.78;2.88;;;6.20;99.90;;;;;;5038091;28;20092;-61
2022/04/25 00:26:43;;;;;;;6.45;3.08;;;6.20;99.90;;;;;;5037725;28;20029;-61
2022/04/25 00:29:08;;;;;;;4.82;3.03;;;6.20;99.90;;;;;;5055545;28;20445;-61
2022/04/25 00:31:34;;;;;;;5.72;2.92;;;6.20;99.90;;;;;;5055362;28;20033;-61
2022/04/25 00:34:00;;;;;;;7.50;3.20;;;6.10;99.90;;;;;;5055428;28;20072;-61
2022/04/25 00:36:25;;;;;;;8.80;3.55;;;6.20;99.90;;;;;;5055344;28;20045;-59
2022/04/25 00:38:51;;;;;;;6.15;3.65;;;6.20;99.90;;;;;;5037645;28;20075;-58
2022/04/25 00:41:16;;;;;;;6.90;2.92;;;6.20;99.90;;;;;;5055275;28;20489;-58
2022/04/25 00:43:42;;;;;;;7.95;3.05;;;6.20;99.90;;;;;;5055276;28;20162;-58
2022/04/25 00:46:22;;;;;;;6.38;3.33;;;6.20;99.90;;;;;;5055429;28;20495;-58
2022/04/25 00:48:49;;;;;;;5.75;3.22;;;6.10;99.90;;;;;;5055269;28;20477;-58
2022/04/25 00:51:16;;;;;;;7.47;3.65;;;6.10;99.90;;;;;;5055174;28;20060;-58
2022/04/25 00:53:44;;;;;;;4.90;2.92;;;6.10;99.90;;;;;;5055005;28;20485;-58
2022/04/25 00:56:12;;;;;;;6.55;3.65;;;6.00;99.90;;;;;;5055059;28;20130;-58
2022/04/25 00:58:38;;;;;;;9.65;3.65;;;6.00;99.90;;;;;;5054745;28;20051;-58
2022/04/25 01:01:04;;;;;;;4.97;2.85;;;6.00;99.90;;;;;;5037009;28;20041;-59
2022/04/25 01:03:30;;;;;;;10.15;3.70;;;6.00;99.90;;;;;;5054972;28;20041;-61
2022/04/25 01:05:55;;;;;;;6.88;3.08;;;6.00;99.90;;;;;;5054926;28;20477;-61
2022/04/25 01:08:21;;;;;;;6.35;3.58;;;6.00;99.90;;;;;;5054864;28;20025;-62
2022/04/25 01:10:47;;;;;;;6.55;3.22;;;6.00;99.90;;;;;;5037053;28;20104;-62
2022/04/25 01:13:13;;;;;;;8.52;3.92;;;5.90;99.90;;;;;;5054564;28;20037;-62
2022/04/25 01:15:39;;;;;;;6.03;3.55;;;5.80;99.90;;;;;;5054674;28;20041;-58
2022/04/25 01:18:04;;;;;;;9.95;3.17;;;5.80;99.90;;;;;;5054699;28;20075;-57
2022/04/25 01:20:30;;;;;;;8.43;3.65;;;5.90;99.90;;;;;;5054377;28;20486;-59
2022/04/25 01:28:37;;;;;;;5.97;3.53;;;5.90;99.90;;;;;;5054711;28;20039;-58
2022/04/25 01:31:02;;;;;;;8.45;3.65;;;5.90;99.90;;;;;;5054298;28;20140;-57
2022/04/25 01:33:28;;;;;;;8.70;3.78;;;5.90;99.90;;;;;;5054248;28;20044;-59
2022/04/25 01:35:54;;;;;;;5.32;3.83;;;5.90;99.90;;;;;;5054335;28;20080;-62
2022/04/25 01:38:20;;;;;;;5.70;3.15;;;5.90;99.90;;;;;;5054190;28;20068;-62
2022/04/25 01:40:45;;;;;;;9.95;4.00;;;5.90;99.90;;;;;;5054174;28;20112;-58
2022/04/25 01:43:11;;;;;;;11.50;4.07;;;5.90;99.90;;;;;;5054181;28;20040;-62
2022/04/25 01:45:40;;;;;;;6.88;3.83;;;5.90;99.90;;;;;;5054236;28;20037;-62
2022/04/25 01:48:05;;;;;;;5.18;3.35;;;5.80;99.90;;;;;;5054194;28;20091;-62
2022/04/25 01:50:31;;;;;;;8.63;3.90;;;5.80;99.90;;;;;;5053846;28;20045;-62
2022/04/25 01:52:57;;;;;;;9.15;4.10;;;5.80;99.90;;;;;;5053948;28;20048;-58
2022/04/25 01:55:22;;;;;;;7.30;3.42;;;5.70;99.90;;;;;;5053983;28;20508;-59
2022/04/25 01:57:48;;;;;;;9.50;4.32;;;5.80;99.90;;;;;;5053150;28;20053;-58
2022/04/25 02:00:14;;;;;;;5.78;3.47;;;5.70;99.90;;;;;;5053679;28;20049;-59
2022/04/25 02:02:40;;;;;;;8.75;4.25;;;5.60;99.90;;;;;;5053724;28;20041;-60
2022/04/25 02:05:06;;;;;;;9.98;4.13;;;5.60;99.90;;;;;;5053708;28;20246;-59
2022/04/25 02:07:32;;;;;;;6.18;3.50;;;5.60;99.90;;;;;;5053867;28;20036;-58
2022/04/25 02:09:58;;;;;;;6.95;3.95;;;5.60;99.90;;;;;;5053680;28;20493;-61
2022/04/25 02:12:23;;;;;;;10.75;5.07;;;5.70;99.90;;;;;;5053747;28;20380;-62
2022/04/25 02:14:49;;;;;;;6.22;3.97;;;5.70;99.90;;;;;;5053802;28;20499;-62
2022/04/25 02:17:15;;;;;;;8.18;4.75;;;5.70;99.90;;;;;;5053596;28;20048;-62
2022/04/25 02:19:43;;;;;;;6.72;3.72;;;5.70;99.90;;;;;;5053404;28;20083;-62
2022/04/25 02:22:10;;;;;;;10.35;4.10;;;5.70;99.90;;;;;;5053263;28;20117;-62
2022/04/25 02:24:36;;;;;;;8.70;4.40;;;5.70;99.90;;;;;;5053523;28;20116;-62
2022/04/25 02:27:03;;;;;;;7.95;5.00;;;5.70;99.90;;;;;;5053388;28;20106;-62
2022/04/25 02:29:33;;;;;;;17.88;5.60;;;5.80;99.90;;;;;;5053303;28;20079;-62
2022/04/25 02:32:00;;;;;;;10.20;5.07;;;5.70;99.90;;;;;;5053128;28;20029;-62
2022/04/25 02:34:28;;;;;;;7.90;4.97;;;5.80;99.90;;;;;;5035237;28;20396;-62
2022/04/25 02:36:55;;;;;;;7.57;4.57;;;5.80;99.90;;;;;;5053167;28;20323;-62
2022/04/25 02:39:24;;;;;;;9.05;4.93;;;5.70;99.90;;;;;;5053183;28;20033;-62
2022/04/25 02:41:50;;;;;;;10.35;5.57;;;5.80;99.90;;;;;;5053128;28;20033;-62
2022/04/25 02:44:17;;;;;;;7.70;4.80;;;5.80;99.90;;;;;;5035200;28;20087;-62
2022/04/25 02:46:43;;;;;;;9.85;4.75;;;5.70;99.90;;;;;;5053055;28;20033;-62
2022/04/25 02:49:08;;;;;;;9.25;5.60;;;5.80;99.90;;;;;;5052876;28;20037;-59
2022/04/25 02:51:34;;;;;;;9.68;4.80;;;5.80;99.90;;;;;;5052771;28;20044;-59
2022/04/25 02:54:00;;;;;;;9.32;4.95;;;5.80;99.90;;;;;;5052891;28;20037;-62
2022/04/25 02:56:25;;;;;;;9.68;5.70;;;5.90;99.90;;;;;;5052943;28;20065;-59
2022/04/25 02:58:51;;;;;;;9.88;4.82;;;6.00;99.90;;;;;;5052679;28;20045;-61
2022/04/25 03:01:17;;;;;;;11.07;5.03;;;6.10;99.90;;;;;;5052668;28;20047;-62
2022/04/25 03:03:43;;;;;;;8.27;5.05;;;6.30;99.90;;;;;;5052630;28;20107;-58
2022/04/25 03:06:10;;;;;;;12.05;5.65;;;6.30;99.90;;;;;;5052683;28;20065;-58
2022/04/25 03:08:37;;;;;;;9.90;5.70;;;6.40;99.90;;;;;;5051946;28;20048;-58
2022/04/25 03:11:10;;;;;;;9.95;5.07;;;6.50;99.90;;;;;;5052587;28;20115;-58
2022/04/25 03:13:38;;;;;;;8.75;5.68;;;6.60;99.90;;;;;;5052699;28;20485;-59
2022/04/25 03:16:04;;;;;;;;;;;6.70;99.90;;;;;;5053035;28;20029;-59
2022/04/25 03:18:32;;;;;;;9.55;4.45;;;6.80;99.90;;;;;;5052412;28;19915;-59
2022/04/25 03:20:58;;;;;;;10.82;5.35;;;6.80;99.90;;;;;;5052527;28;20401;-59
2022/04/25 03:23:24;;;;;;;11.90;5.35;;;6.90;99.90;;;;;;5052549;28;20079;-59
2022/04/25 03:25:51;;;;;;;10.80;5.65;;;6.90;99.90;;;;;;5052410;28;20116;-58
2022/04/25 03:28:17;;;;;;;8.55;5.20;;;7.00;99.90;;;;;;5052545;28;20400;-58
2022/04/25 03:30:43;;;;;;;7.80;4.80;;;7.00;99.90;;;;;;5052346;28;20037;-59
2022/04/25 03:33:12;;;;;;;12.20;5.68;;;7.00;99.90;;;;;;5052314;28;20499;-59
2022/04/25 03:35:39;;;;;;;11.90;5.15;;;7.10;99.90;;;;;;5052384;28;20040;-62
2022/04/25 03:38:06;;;;;;;13.53;5.37;;;7.20;99.90;;;;;;5052444;28;20045;-62
2022/04/25 03:40:34;;;;;;;12.93;5.78;;;7.20;99.90;;;;;;5052279;28;20037;-58
2022/04/25 03:42:59;;;;;;;9.95;4.80;;;7.20;99.90;;;;;;5052324;28;20048;-59
2022/04/25 03:45:25;;;;;;;14.52;5.57;;;7.20;99.90;;;;;;5052217;28;20033;-59
2022/04/25 03:47:51;;;;;;;10.98;4.97;;;7.20;99.90;;;;;;5052224;28;20126;-58
2022/04/25 03:50:17;;;;;;;9.35;5.22;;;7.30;99.90;;;;;;5052401;28;20044;-58
2022/04/25 03:52:45;;;;;;;7.15;4.93;;;7.30;99.90;;;;;;5052306;28;20421;-58
2022/04/25 03:57:58;;;;;;;9.07;4.78;;;7.40;99.90;;;;;;5052113;28;20525;-59
2022/04/25 04:00:24;;;;;;;10.30;5.55;;;7.30;99.90;;;;;;5034234;28;20045;-59
2022/04/25 04:02:50;;;;;;;9.55;4.90;;;7.30;99.90;;;;;;5051970;28;20477;-59
2022/04/25 04:05:16;;;;;;;10.20;4.72;;;7.30;99.90;;;;;;5052111;28;20079;-59
2022/04/25 04:07:42;;;;;;;11.15;5.32;;;7.30;99.90;;;;;;5052197;28;20091;-59
2022/04/25 04:10:08;;;;;;;10.63;5.90;;;7.30;99.90;;;;;;5052194;28;20416;-58
2022/04/25 04:12:34;;;;;;;12.02;5.88;;;7.20;99.90;;;;;;5051892;28;20037;-58
2022/04/25 04:15:07;;;;;;;8.90;5.15;;;7.20;99.90;;;;;;5052177;28;20025;-63
2022/04/25 04:17:34;;;;;;;7.10;5.00;;;7.10;99.90;;;;;;5052381;28;20041;-63
2022/04/25 04:20:02;;;;;;;12.20;5.83;;;7.00;99.90;;;;;;5052409;28;20036;-63
2022/04/25 04:22:30;;;;;;;13.02;5.55;;;6.90;99.90;;;;;;5037778;28;20690;-58
2022/04/25 04:24:59;;;;;;;;;;;6.90;99.90;;;;;;5055969;28;20480;-59
2022/04/25 04:27:25;;;;;;;12.90;5.18;;;6.80;99.90;;;;;;5037733;28;20335;-59
2022/04/25 04:29:51;;;;;;;11.85;5.10;;;6.80;99.90;;;;;;5055566;28;20064;-59
2022/04/25 04:32:16;;;;;;;7.97;5.35;;;6.80;99.90;;;;;;5055474;28;20116;-59
2022/04/25 04:34:42;;;;;;;12.63;6.13;;;6.80;99.90;;;;;;5055437;28;20068;-62
2022/04/25 04:37:08;;;;;;;12.32;5.53;;;6.70;99.90;;;;;;5055375;28;20041;-63
2022/04/25 04:39:34;;;;;;;9.23;5.15;;;6.80;99.90;;;;;;5055090;28;20036;-63
2022/04/25 04:41:59;;;;;;;11.23;5.93;;;6.90;99.90;;;;;;5055328;28;20502;-63
2022/04/25 04:44:25;;;;;;;13.13;5.90;;;7.00;99.90;;;;;;5055459;28;20029;-63
2022/04/25 04:46:51;;;;;;;11.05;5.88;;;7.00;99.90;;;;;;5037385;28;20033;-63
2022/04/25 04:49:17;;;;;;;13.02;5.95;;;7.10;99.90;;;;;;5055167;28;20125;-63
2022/04/25 04:51:43;;;;;;;8.13;5.55;;;7.10;99.90;;;;;;5055089;28;20037;-63
2022/04/25 04:54:09;;;;;;;12.07;6.18;;;7.20;99.90;;;;;;5055561;28;20033;-63
2022/04/25 04:56:35;;;;;;;10.27;5.88;;;7.20;99.90;;;;;;5054975;28;20424;-63
2022/04/25 04:59:02;;;;;;;12.68;5.43;;;7.30;99.90;;;;;;5054802;28;20451;-63
2022/04/25 05:01:28;;;;;;;9.90;4.97;;;7.30;99.90;;;;;;5055073;28;20448;-63
2022/04/25 05:03:58;;;;;;;14.35;6.65;;;7.40;99.90;;;;;;5054891;28;20105;-63
2022/04/25 05:06:25;;;;;;;10.57;6.50;;;7.40;99.90;;;;;;5054999;28;20107;-63
2022/04/25 05:08:52;;;;;;;11.10;5.43;;;7.50;99.90;;;;;;5036950;28;20094;-63
2022/04/25 05:11:17;;;;;;;8.65;5.32;;;7.50;99.90;;;;;;5054840;28;20025;-59
2022/04/25 05:13:43;;;;;;;10.35;6.32;;;7.50;99.90;;;;;;5054678;28;20061;-58
2022/04/25 05:16:08;;;;;;;9.15;5.38;;;7.60;99.90;;;;;;5054762;28;20043;-58
2022/04/25 05:18:34;;;;;;;14.77;6.43;;;7.60;99.90;;;;;;5054526;28;20470;-58
2022/04/25 05:21:01;;;;;;;10.90;5.75;;;7.60;99.90;;;;;;5054395;28;20128;-59
2022/04/25 05:23:26;;;;;;;12.48;5.97;;;7.60;99.90;;;;;;5054453;28;20033;-59
2022/04/25 05:25:53;;;;;;;8.82;5.10;;;7.70;99.90;;;;;;5054517;28;20036;-59
2022/04/25 05:28:19;;;;;;;7.60;5.22;;;7.70;99.90;;;;;;5054456;28;20040;-59
2022/04/25 05:30:46;;;;;;;9.32;5.38;;;7.80;99.90;;;;;;5054273;28;20494;-59
2022/04/25 05:33:12;;;;;;;12.97;5.40;;;7.70;99.90;;;;;;5070632;28;20031;-58
2022/04/25 05:35:38;;;;;;;14.75;5.93;;;7.80;99.90;;;;;;5074187;28;20040;-59
2022/04/25 05:38:06;;;;;;;9.00;4.38;;;7.80;99.90;;;;;;5074244;28;20119;-59
2022/04/25 05:40:32;;;;;;;9.88;5.13;;;7.80;99.90;;;;;;5073997;28;20102;-58
2022/04/25 05:43:02;;;;;;;9.75;5.45;;;7.80;99.90;;;;;;5074154;28;20024;-58
2022/04/25 05:45:27;;;;;;;9.43;4.70;;;7.80;99.90;;;;;;5074097;28;20492;-63
2022/04/25 05:47:55;;;;;;;9.90;5.03;;;7.80;99.90;;;;;;5074074;28;20024;-59
2022/04/25 05:53:06;;;;;;;8.95;4.95;;;7.80;99.90;;;;;;5073464;28;20120;-63
2022/04/25 05:55:32;;;;;;;8.05;4.65;;;7.90;99.90;;;;;;5070288;28;20068;-63
2022/04/25 05:57:59;;;;;;;9.48;5.25;;;7.90;99.90;;;;;;5087797;28;20048;-63
2022/04/25 06:00:25;;;;;;;14.55;4.45;;;8.00;99.90;;;;;;5094411;28;20044;-63
2022/04/25 06:02:51;;;;;;;9.52;5.38;;;8.00;99.90;;;;;;5094154;28;20042;-63
2022/04/25 06:05:17;;;;;;;6.72;4.43;;;8.10;99.90;;;;;;5093993;28;20111;-63
2022/04/25 06:07:45;;;;;;;7.35;4.45;;;8.20;99.90;;;;;;5094051;28;20040;-63
2022/04/25 06:10:12;;;;;;;10.38;4.93;;;8.20;99.90;;;;;;5094081;28;20384;-63
2022/04/25 06:12:47;;;;;;;9.88;5.03;;;8.20;99.90;;;;;;5093785;28;20039;-63
2022/04/25 06:15:16;;;;;;;11.00;4.55;;;8.40;99.90;;;;;;5093767;28;20032;-63
2022/04/25 06:17:41;;;;;;;13.70;4.22;;;8.40;99.90;;;;;;5094052;28;20063;-63
2022/04/25 06:20:09;;;;;;;9.20;4.72;;;8.50;99.90;;;;;;5093613;28;20040;-63
2022/04/25 06:22:35;;;;;;;6.35;4.25;;;8.50;99.90;;;;;;5093524;28;20035;-63
2022/04/25 06:25:01;;;;;;;6.38;4.40;;;8.50;99.90;;;;;;5093406;28;20036;-63
2022/04/25 06:27:27;;;;;;;13.80;4.63;;;8.60;99.90;;;;;;5093582;28;20027;-63
2022/04/25 06:29:52;;;;;;;7.88;4.07;;;8.70;99.90;;;;;;5093358;28;20043;-63
2022/04/25 06:32:19;;;;;;;10.05;4.40;;;8.80;99.90;;;;;;5093463;28;20043;-63
2022/04/25 06:34:46;;;;;;;8.60;4.45;;;8.90;99.90;;;;;;5093363;28;20040;-63
2022/04/25 06:37:12;;;;;;;9.05;4.13;;;9.00;99.90;;;;;;5093235;28;20039;-63
2022/04/25 06:39:37;;;;;;;7.10;3.85;;;9.00;99.90;;;;;;5093195;28;20040;-63
2022/04/25 06:42:05;;;;;;;11.18;4.80;;;8.80;99.90;;;;;;5093259;28;20388;-63
2022/04/25 06:44:31;;;;;;;11.13;4.32;;;8.80;99.90;;;;;;5092817;28;20047;-63
2022/04/25 06:46:58;;;;;;;8.18;4.65;;;8.80;99.90;;;;;;5093430;28;20056;-63
2022/04/25 06:49:24;;;;;;;8.25;4.07;;;8.90;99.90;;;;;;5093145;28;20110;-63
2022/04/25 06:51:56;;;;;;;9.60;4.75;;;9.00;99.90;;;;;;5093224;28;20513;-64
2022/04/25 06:54:23;;;;;;;6.30;3.63;;;9.00;99.90;;;;;;5093009;28;20400;-63
2022/04/25 06:56:49;;;;;;;;;;;9.10;99.90;;;;;;5093132;28;20044;-63
2022/04/25 06:59:15;;;;;;;6.88;4.25;;;9.20;99.90;;;;;;5092962;28;19916;-63
2022/04/25 07:01:42;;;;;;;5.20;3.75;;;9.30;99.90;;;;;;5092830;28;20036;-63
2022/04/25 07:04:09;;;;;;;7.63;3.22;;;9.40;99.90;;;;;;5092783;28;20039;-63
2022/04/25 07:06:35;;;;;;;12.77;4.25;;;9.40;99.90;;;;;;5092855;28;20458;-63
2022/04/25 07:09:00;;;;;;;8.10;3.83;;;9.40;99.90;;;;;;5092941;28;20051;-59
2022/04/25 07:11:26;;;;;;;5.47;3.53;;;9.50;99.90;;;;;;5092880;28;20111;-59
2022/04/25 07:13:51;;;;;;;8.57;3.30;;;9.60;99.90;;;;;;5092603;28;20102;-58
2022/04/25 07:16:17;;;;;;;6.05;3.90;;;9.80;99.90;;;;;;5092805;28;20085;-59
2022/04/25 07:18:43;;;;;;;5.25;3.38;;;9.90;99.90;;;;;;5092771;28;20093;-59
2022/04/25 07:29:23;;;;;;;10.32;3.42;;;10.30;99.90;;;;;;5092963;28;20051;-63
2022/04/25 07:31:53;;;;;;;4.78;3.45;;;10.50;99.90;;;;;;5092644;28;20044;-63
2022/04/25 07:34:21;;;;;;;4.78;3.58;;;10.50;99.70;;;;;;5092501;28;20039;-63
2022/04/25 07:36:51;;;;;;;6.13;2.90;;;10.60;99.50;;;;;;5092574;28;20252;-58
2022/04/25 07:39:21;;;;;;;11.30;4.05;;;10.50;99.50;;;;;;5092623;28;20130;-58
2022/04/25 07:41:48;;;;;;;4.47;2.72;;;10.40;99.20;;;;;;5092463;28;20115;-63
2022/04/25 07:44:13;;;;;;;6.00;3.22;;;10.50;99.90;;;;;;5092578;28;20020;-63
2022/04/25 07:46:45;;;;;;;5.82;3.22;;;10.60;99.50;;;;;;5092392;28;20034;-63
2022/04/25 07:49:11;;;;;;;7.95;3.13;;;10.70;99.30;;;;;;5092337;28;20056;-64
2022/04/25 07:51:41;;;;;;;5.18;3.08;;;10.60;99.00;;;;;;5074299;28;20039;-63
2022/04/25 07:54:08;;;;;;;7.13;3.00;;;10.80;99.00;;;;;;5092401;28;20427;-63
2022/04/25 07:56:38;;;;;;;5.85;2.90;;;10.90;99.20;;;;;;5095632;28;20044;-59
2022/04/25 07:59:05;;;;;;;9.90;3.13;;;11.10;99.20;;;;;;5096308;28;20044;-63
2022/04/25 08:01:32;;;;;;;4.93;3.00;;;11.20;98.60;;;;;;5096288;28;20036;-63
2022/04/25 08:03:58;;;;;;;6.82;3.10;;;11.30;98.40;;;;;;5096081;28;20036;-63
2022/04/25 08:06:23;;;;;;;6.53;2.80;;;11.40;98.10;;;;;;5096361;28;20153;-63
2022/04/25 08:08:50;;;;;;;8.48;2.95;;;11.40;97.30;;;;;;5096226;28;20039;-63
2022/04/25 08:11:16;;;;;;;5.17;2.97;;;11.10;97.10;;;;;;5096279;28;20039;-63
2022/04/25 08:19:13;;;;;;;4.82;2.35;;;11.10;97.40;;;;;;5096053;28;20545;-63
2022/04/25 08:21:40;;;;;;;5.10;2.65;;;11.20;97.20;;;;;;5095793;28;20039;-63
2022/04/25 08:24:06;;;;;;;6.47;2.45;;;11.40;97.40;;;;;;5095840;28;20046;-59
2022/04/25 08:26:32;;;;;;;5.93;2.70;;;11.50;96.90;;;;;;5095697;28;20032;-59
2022/04/25 08:28:59;;;;;;;4.30;2.58;;;11.50;96.30;;;;;;5077785;28;20090;-59
2022/04/25 08:31:26;;;;;;;4.43;2.45;;;11.70;96.20;;;;;;5095707;28;20074;-59
2022/04/25 08:33:51;;;;;;;8.38;3.33;;;11.70;96.50;;;;;;5095655;28;20028;-59
2022/04/25 08:36:18;;;;;;;5.53;2.88;;;11.70;95.80;;;;;;5095592;28;20365;-59
2022/04/25 08:38:45;;;;;;;3.95;2.85;;;11.80;95.90;;;;;;5077313;28;20047;-60
2022/04/25 08:41:16;;;;;;;5.15;2.60;;;12.00;95.90;;;;;;5095415;28;20032;-58
2022/04/25 08:43:42;;;;;;;5.25;3.00;;;12.00;95.70;;;;;;5095485;28;20116;-59
2022/04/25 08:46:09;;;;;;;4.00;2.53;;;11.90;95.30;;;;;;5095243;28;20424;-59
2022/04/25 08:48:36;;;;;;;;;;;12.00;95.50;;;;;;5077691;28;20032;-59
2022/04/25 08:51:03;;;;;;;8.15;3.65;;;11.80;94.70;;;;;;5095292;28;19904;-59
2022/04/25 08:53:31;;;;;;;6.65;2.70;;;12.00;96.20;;;;;;5095202;28;20085;-59
2022/04/25 08:55:56;;;;;;;;;;;12.10;95.10;;;;;;5095499;28;20123;-59
2022/04/25 08:58:23;;;;;;;5.82;2.50;;;12.20;95.20;;;;;;5095115;28;19997;-59
2022/04/25 09:00:49;;;;;;;4.63;2.70;;;12.30;94.90;;;;;;5077111;28;20047;-59
2022/04/25 09:03:15;;;;;;;7.15;2.90;;;12.50;94.50;;;;;;5077011;28;20261;-59
2022/04/25 09:05:41;;;;;;;5.25;2.25;;;12.70;94.30;;;;;;5095126;28;20107;-58
2022/04/25 09:08:07;;;;;;;3.40;2.58;;;13.00;93.80;;;;;;5095022;28;20563;-58
2022/04/25 09:10:34;;;;;;;7.55;2.85;;;13.10;92.90;;;;;;5095011;28;20107;-63
2022/04/25 09:13:00;;;;;;;3.97;2.28;;;13.00;92.70;;;;;;5095186;28;20415;-63
2022/04/25 09:15:26;;;;;;;3.60;2.05;;;12.90;93.30;;;;;;5095212;28;20547;-64
2022/04/25 09:17:56;;;;;;;4.60;2.28;;;12.90;93.50;;;;;;5094927;28;20043;-63
2022/04/25 09:20:22;;;;;;;5.05;2.47;;;12.90;93.60;;;;;;5094815;28;20495;-64
2022/04/25 09:22:48;;;;;;;4.53;2.17;;;13.20;93.00;;;;;;5094663;28;20059;-59
2022/04/25 09:25:16;;;;;;;4.53;2.40;;;13.30;92.50;;;;;;5094900;28;20554;-58
2022/04/25 09:27:42;;;;;;;;;;;13.70;92.30;;;;;;5095047;28;20036;-58
2022/04/25 09:30:19;;;;;;;4.00;2.58;;;14.00;91.30;;;;;;5094447;28;19908;-63
2022/04/25 09:32:52;;;;;;;4.38;2.65;;;14.40;91.00;;;;;;5094480;28;20399;-59
2022/04/25 09:35:29;;;;;;;3.30;2.17;;;14.50;89.20;;;;;;5094337;28;20035;-57
2022/04/25 09:37:56;;;;;;;3.00;1.70;;;14.90;90.00;;;;;;5094453;28;20042;-59
2022/04/25 09:40:24;;;;;;;3.28;1.98;;;14.80;88.20;;;;;;5094140;28;20078;-59
2022/04/25 09:43:12;;;;;;;5.30;2.33;;;15.30;88.10;;;;;;5094356;28;20527;-59
2022/04/25 09:45:42;;;;;;;3.20;2.00;;;15.20;88.10;;;;;;5094266;28;20040;-59
2022/04/25 09:48:20;;;;;;;2.85;1.98;;;15.40;85.10;;;;;;5094292;28;20060;-58
2022/04/25 09:50:59;;;;;;;5.30;2.10;;;15.90;84.20;;;;;;5075993;28;20084;-59
2022/04/25 09:53:42;;;;;;;4.53;2.03;;;16.50;83.10;;;;;;5094428;28;20495;-59
2022/04/25 09:56:16;;;;;;;3.90;1.80;;;17.20;81.90;;;;;;5093980;28;20388;-59
2022/04/25 09:58:44;;;;;;;5.18;1.80;;;18.00;79.30;;;;;;5093734;28;20119;-62
2022/04/25 10:01:13;;;;;;;;;;;18.30;75.70;;;;;;5094490;28;20038;-62
2022/04/25 10:03:40;;;;;;;7.10;2.00;;;19.20;74.40;;;;;;5094014;28;19907;-57
2022/04/25 10:06:06;;;;;;;4.32;2.03;;;19.50;71.10;;;;;;5093876;28;20043;-57
2022/04/25 10:08:35;;;;;;;4.18;1.95;;;20.00;69.00;;;;;;5093834;28;20032;-57
2022/04/25 10:11:06;;;;;;;3.00;1.90;;;20.40;65.30;;;;;;5093780;28;20028;-57
2022/04/25 10:13:33;;;;;;;2.95;1.98;;;20.60;62.50;;;;;;5093962;28;20043;-57
2022/04/25 10:16:00;;;;;;;4.13;2.00;;;20.70;61.40;;;;;;5093708;28;20044;-57
2022/04/25 10:18:27;;;;;;;3.83;1.90;;;20.80;59.90;;;;;;5093259;28;20081;-57
2022/04/25 10:20:53;;;;;;;4.40;1.90;;;20.80;59.30;;;;;;5093645;28;20272;-62
2022/04/25 10:23:19;;;;;;;2.47;2.05;;;20.90;60.90;;;;;;5093660;28;20054;-62
2022/04/25 10:26:01;;;;;;;4.25;1.80;;;20.80;56.60;;;;;;5093276;28;20192;-61
2022/04/25 10:28:43;;;;;;;4.15;1.70;;;20.30;60.60;;;;;;5075513;28;20281;-61
2022/04/25 10:31:13;;;;;;;5.90;1.90;;;20.80;60.20;;;;;;5076299;28;20099;-61
2022/04/25 10:33:52;;;;;;;5.45;2.00;;;21.90;57.80;;;;;;5093304;28;20043;-62
2022/04/25 10:36:36;;;;;;;4.40;1.83;;;22.10;53.70;;;;;;5093545;28;20039;-62
2022/04/25 10:39:19;;;;;;;3.15;1.88;;;21.30;52.90;;;;;;5093473;28;20459;-62
2022/04/25 10:44:42;;;;;;;3.78;1.77;;;19.50;57.00;;;;;;5093528;28;20051;-61
2022/04/25 10:47:11;;;;;;;5.20;1.90;;;19.20;59.40;;;;;;5093637;28;20043;-62
2022/04/25 10:49:47;;;;;;;2.83;1.70;;;19.00;59.40;;;;;;5093194;28;20059;-62
2022/04/25 10:52:54;;;;;;;3.20;2.08;;;18.90;59.10;;;;;;5093634;28;20032;-62
2022/04/25 10:55:42;;;;;;;2.05;1.80;;;18.60;58.70;;;;;;5092158;28;20407;-62
2022/04/25 10:58:13;;;;;;;4.28;1.95;;;17.60;61.30;;;;;;5092831;28;20071;-63
2022/04/25 11:00:45;;;;;;;2.75;1.45;;;18.30;64.00;;;;;;5092874;28;20044;-64
2022/04/25 11:03:32;;;;;;;3.05;1.80;;;19.60;59.80;;;;;;5093058;28;20475;-64
2022/04/25 11:06:03;;;;;;;2.60;1.90;;;20.40;55.60;;;;;;5092478;28;20495;-64
2022/04/25 11:08:37;;;;;;;5.38;2.42;;;21.20;56.50;;;;;;5074688;28;20053;-62
2022/04/25 11:11:18;;;;;;;3.75;1.90;;;20.70;54.10;;;;;;5092875;28;20484;-61
2022/04/25 11:13:49;;;;;;;4.82;2.20;;;20.30;55.50;;;;;;5074631;28;20084;-62
2022/04/25 11:16:23;;;;;;;2.50;1.83;;;19.60;55.30;;;;;;5092669;28;20031;-61
2022/04/25 11:19:09;;;;;;;2.42;1.85;;;19.00;58.40;;;;;;5092468;28;20040;-56
2022/04/25 11:21:40;;;;;;;3.25;2.17;;;18.40;58.70;;;;;;5092595;28;20029;-58
2022/04/25 11:24:28;;;;;;;3.63;2.08;;;18.00;61.40;;;;;;5092704;28;20047;-58
2022/04/25 11:26:56;;;;;;;4.35;1.90;;;17.10;62.50;;;;;;5092590;28;20031;-63
2022/04/25 11:29:21;;;;;;;2.95;2.05;;;17.70;65.50;;;;;;5092650;28;20040;-59
2022/04/25 11:31:47;;;;;;;2.05;1.77;;;18.70;61.70;;;;;;5096218;28;20169;-63
2022/04/25 11:34:13;;;;;;;4.97;2.10;;;19.80;59.20;;;;;;5096821;28;20038;-63
2022/04/25 11:36:41;;;;;;;5.85;2.00;;;20.00;56.30;;;;;;5096960;28;20094;-64
2022/04/25 11:41:52;;;;;;;4.05;1.75;;;19.40;54.90;;;;;;5097035;28;20453;-63
2022/04/25 11:44:18;;;;;;;1.95;1.70;;;18.90;56.00;;;;;;5096758;28;20063;-61
2022/04/25 11:46:44;;;;;;;1.88;1.67;;;18.10;56.30;;;;;;5096449;28;20028;-61
2022/04/25 11:49:10;;;;;;;2.03;1.57;;;18.40;58.90;;;;;;5096788;28;20036;-61
2022/04/25 11:51:38;;;;;;;4.68;1.90;;;19.20;56.20;;;;;;5096553;28;20041;-63
2022/04/25 11:54:07;;;;;;;4.05;1.70;;;20.40;53.90;;;;;;5096451;28;20080;-63
2022/04/25 11:56:35;;;;;;;2.75;1.65;;;20.50;53.20;;;;;;5096442;28;20044;-65
2022/04/25 11:59:12;;;;;;;3.70;1.70;;;20.40;52.00;;;;;;5096109;28;20514;-63
2022/04/25 12:01:42;;;;;;;6.32;1.80;;;19.70;53.10;;;;;;5078278;28;20377;-64
2022/04/25 12:04:27;;;;;;;3.20;1.73;;;18.20;55.10;;;;;;5096284;28;20416;-64
2022/04/25 12:07:03;;;;;;;4.25;2.33;;;17.30;58.80;;;;;;5096203;28;20032;-63
2022/04/25 12:15:35;;;;;;;4.53;1.90;;;19.10;59.20;;;;;;5096487;28;20193;-59
2022/04/25 12:18:16;;;;;;;3.97;2.17;;;20.00;55.20;;;;;;5095719;28;20044;-59
2022/04/25 12:20:44;;;;;;;2.92;1.73;;;19.50;55.20;;;;;;5095956;28;20071;-61
2022/04/25 12:23:19;;;;;;;3.72;1.85;;;19.50;57.70;;;;;;5096351;28;20016;-61
2022/04/25 12:25:44;;;;;;;5.43;1.98;;;18.70;56.90;;;;;;5095916;28;20361;-64
2022/04/25 12:28:22;;;;;;;5.03;2.75;;;18.00;59.60;;;;;;5095827;28;20043;-64
2022/04/25 12:30:51;;;;;;;5.03;2.33;;;17.10;62.40;;;;;;5095897;28;20457;-64
2022/04/25 12:33:23;;;;;;;3.30;2.03;;;16.70;67.30;;;;;;5095815;28;20048;-63
2022/04/25 12:35:51;;;;;;;3.33;2.28;;;17.20;69.10;;;;;;5095636;28;20499;-63
2022/04/25 12:38:33;;;;;;;3.67;2.20;;;17.10;62.50;;;;;;5095690;28;20039;-63
2022/04/25 12:40:59;;;;;;;3.92;2.10;;;16.80;66.70;;;;;;5094952;28;20040;-63
2022/04/25 12:43:39;;;;;;;7.45;2.22;;;16.50;64.20;;;;;;5095824;28;20491;-63
2022/04/25 12:46:08;;;;;;;4.35;2.53;;;16.20;66.40;;;;;;5095848;28;20052;-59
2022/04/25 12:49:00;;;;;;;3.45;2.10;;;16.20;68.90;;;;;;5095413;28;20476;-59
2022/04/25 12:51:27;;;;;;;4.80;2.47;;;16.10;70.20;;;;;;5095300;28;20039;-63
2022/04/25 12:53:53;;;;;;;2.17;1.97;;;15.90;72.50;;;;;;5095542;28;20043;-63
2022/04/25 12:56:25;;;;;;;2.80;1.85;;;15.90;75.00;;;;;;5095552;28;20280;-63
2022/04/25 12:58:52;;;;;;;4.00;2.08;;;15.80;71.00;;;;;;5094974;28;20118;-58
2022/04/25 13:01:29;;;;;;;2.53;1.98;;;15.90;71.50;;;;;;5095364;28;20044;-59
2022/04/25 13:04:05;;;;;;;2.67;2.05;;;15.80;70.70;;;;;;5095000;28;20041;-59
2022/04/25 13:06:31;;;;;;;3.25;2.25;;;15.70;73.50;;;;;;5095047;28;20028;-59
2022/04/25 13:08:56;;;;;;;4.18;2.28;;;15.60;73.00;;;;;;5095103;28;20048;-59
2022/04/25 13:11:22;;;;;;;3.28;2.13;;;15.70;71.20;;;;;;5095015;28;20381;-58
2022/04/25 13:13:50;;;;;;;3.97;2.10;;;15.70;70.20;;;;;;5076821;28;20036;-59
2022/04/25 13:16:16;;;;;;;4.28;1.88;;;15.60;73.10;;;;;;5094851;28;20040;-58
2022/04/25 13:18:42;;;;;;;2.72;2.03;;;15.60;73.80;;;;;;5094761;28;20148;-58
2022/04/25 13:21:10;;;;;;;2.75;2.10;;;15.80;75.20;;;;;;5094838;28;20065;-58
2022/04/25 13:23:36;;;;;;;3.63;2.20;;;15.90;74.00;;;;;;5095183;28;20451;-59
2022/04/25 13:26:02;;;;;;;5.95;2.28;;;15.80;74.70;;;;;;5094651;28;20064;-63
2022/04/25 13:28:28;;;;;;;3.40;2.00;;;16.00;75.60;;;;;;5094675;28;20032;-58
2022/04/25 13:30:55;;;;;;;5.65;2.30;;;16.60;74.00;;;;;;5094746;28;20543;-58
2022/04/25 13:33:21;;;;;;;6.07;2.30;;;17.30;72.80;;;;;;5094496;28;20063;-59
2022/04/25 13:35:46;;;;;;;4.43;2.05;;;18.60;69.90;;;;;;5094655;28;20071;-64